Hub


Voltar

 INFORMAÇÕES METEOROLÓGICAS

METAR FOR GCTS


ADDS - METARS form results

(2340 UTC 19 August 2019)
Data provider http://aviationweather.gov/metar/data/
 
METAR text: GCTS 192330Z 06017KT 9999 FEW020 23/19 Q1017 NOSIG
Conditions at: GCTS (TENERIFE SUR/REI, ES) observed 2330 UTC 19 August 2019
Temperature: 23.0°C (73°F)
Dewpoint: 19.0°C (66°F) [RH = 78%]
Pressure (altimeter): 30.03 inches Hg (1017.0 mb)
Winds: from the ENE (60 degrees) at 20 MPH (17 knots; 8.7 m/s)
Visibility: 6 or more miles (10+ km)
Ceiling: at least 12,000 feet AGL
Clouds: few clouds at 2000 feet AGL
Weather: no significant weather observed at this time

METAR text: GCTS 192300Z 07016KT 9999 FEW020 23/19 Q1017 NOSIG
Conditions at: GCTS (TENERIFE SUR/REI, ES) observed 2300 UTC 19 August 2019
Temperature: 23.0°C (73°F)
Dewpoint: 19.0°C (66°F) [RH = 78%]
Pressure (altimeter): 30.03 inches Hg (1017.0 mb)
Winds: from the ENE (70 degrees) at 18 MPH (16 knots; 8.2 m/s)
Visibility: 6 or more miles (10+ km)
Ceiling: at least 12,000 feet AGL
Clouds: few clouds at 2000 feet AGL
Weather: no significant weather observed at this time

Forecast for: GCTS (TENERIFE SUR/REI, ES)
Text: TAF GCTS 192000Z 1921/2021 09015KT 9999 FEW020 TX29/2014Z TN22/2005Z
Forecast period: 2100 UTC 19 August 2019 to 2100 UTC 20 August 2019
Forecast type: FROM: standard forecast or significant change
Winds: from the E (90 degrees) at 17 MPH (15 knots; 7.7 m/s)
Visibility: 6 or more miles 10+ km)
Ceiling: at least 12,000 feet AGL
Clouds: few clouds at 2000 feet AGL
Weather: no significant weather forecast for this period
Text: PROB40
Forecast period: 2100 UTC 19 August 2019 to 1000 UTC 20 August 2019
Forecast type: TEMPORARY: The following changes expected for less than half the time period
Winds: variable direction winds at 6 MPH (5 knots; 2.6 m/s)
Visibility: missing
Ceiling: unknown
Clouds: missing
Weather: no significant weather forecast for this period


 MAPA DO AEROPORTO


 INFORMAÇÕES DA PISTA

Pista 08 Tamanho da pista 10499 ft Largura da pista 148 ft
Elevação da pista 187 ft Ranhura da pista 0 ft Proa da pista 69
Pista 26 Tamanho da pista 10499 ft Largura da pista 148 ft
Elevação da pista 209 ft Ranhura da pista 0 ft Proa da pista 249

 FREQUÊNCIAS DO AEROPORTO

Tipo APP Nome APP Frequência 120.3 MHZ
Tipo ATIS Nome ATIS Frequência 118.675 MHZ
Tipo GND Nome GND Frequência 121.9 MHZ
Tipo TWR Nome TWR Frequência 119 MHZ

 AUXÍLIOS DE NAVEGAÇÃO PRÓXIMOS AO AEROPORTO

Tipo NDB Nome Tenerife Sur Frequência 317 KHZ
Tipo VOR-DME Nome Tenerife Sur Frequência 116400 KHZ